createdAt,value
2022-12-03T00:00:32.284Z,14.30
2022-12-03T00:03:19.375Z,14.40
2022-12-03T00:06:06.894Z,14.30
2022-12-03T00:08:54.224Z,14.30
2022-12-03T00:11:41.283Z,14.30
2022-12-03T00:14:30.011Z,14.30
2022-12-03T00:17:17.553Z,14.30
2022-12-03T00:20:06.845Z,14.30
2022-12-03T00:22:54.220Z,14.30
2022-12-03T00:25:41.424Z,14.30
2022-12-03T00:28:28.571Z,14.30
2022-12-03T00:31:17.346Z,14.30
2022-12-03T00:34:04.267Z,14.30
2022-12-03T00:36:51.348Z,14.30
2022-12-03T00:39:38.479Z,14.30
2022-12-03T00:42:25.610Z,14.30
2022-12-03T00:45:12.921Z,14.30
2022-12-03T00:48:01.733Z,14.30
2022-12-03T00:50:49.166Z,14.30
2022-12-03T00:53:36.711Z,14.30
2022-12-03T00:56:23.715Z,14.30
2022-12-03T00:59:10.798Z,14.30
2022-12-03T01:01:57.913Z,14.30
2022-12-03T01:04:46.235Z,14.30
2022-12-03T01:07:33.655Z,14.30
2022-12-03T01:10:21.295Z,14.30
2022-12-03T01:13:08.699Z,14.30
2022-12-03T01:15:55.806Z,14.30
2022-12-03T01:18:42.963Z,14.30
2022-12-03T01:21:31.579Z,14.30
2022-12-03T01:24:20.082Z,14.30
2022-12-03T01:27:07.454Z,14.30
2022-12-03T01:29:55.147Z,14.30
2022-12-03T01:32:41.323Z,14.30
2022-12-03T01:35:28.567Z,14.30
2022-12-03T01:38:17.079Z,14.30
2022-12-03T01:41:10.099Z,14.30
2022-12-03T01:43:59.855Z,14.30
2022-12-03T01:46:47.823Z,14.30
2022-12-03T01:49:42.193Z,14.30
2022-12-03T01:52:33.991Z,14.30
2022-12-03T01:55:24.728Z,14.30
2022-12-03T01:58:14.629Z,14.30
2022-12-03T02:01:03.971Z,14.30
2022-12-03T02:03:51.072Z,14.30
2022-12-03T02:06:38.252Z,14.30
2022-12-03T02:09:25.587Z,14.30
2022-12-03T02:12:15.819Z,14.30
2022-12-03T02:15:03.472Z,14.30
2022-12-03T02:17:51.255Z,14.30
2022-12-03T02:20:45.288Z,14.30
2022-12-03T02:23:42.235Z,14.30
2022-12-03T02:26:30.935Z,14.40
2022-12-03T02:29:18.079Z,14.30
2022-12-03T02:32:05.966Z,14.30
2022-12-03T02:34:53.361Z,14.30
2022-12-03T02:37:41.381Z,14.30
2022-12-03T02:40:32.380Z,14.30
2022-12-03T02:43:22.038Z,14.30
2022-12-03T02:46:10.103Z,14.30
2022-12-03T02:48:57.688Z,14.30
2022-12-03T02:51:44.778Z,14.30
2022-12-03T02:54:32.220Z,14.30
2022-12-03T02:57:19.409Z,14.30
2022-12-03T03:00:11.314Z,14.30
2022-12-03T03:02:59.119Z,14.30
2022-12-03T03:05:48.191Z,14.30
2022-12-03T03:08:36.223Z,14.30
2022-12-03T03:11:23.797Z,14.30
2022-12-03T03:14:10.794Z,14.30
2022-12-03T03:16:59.853Z,14.30
2022-12-03T03:19:47.068Z,14.30
2022-12-03T03:22:35.840Z,14.30
2022-12-03T03:25:24.748Z,14.30
2022-12-03T03:28:13.409Z,14.30
2022-12-03T03:31:04.090Z,14.30
2022-12-03T03:33:52.879Z,14.30
2022-12-03T03:36:40.803Z,14.30
2022-12-03T03:39:27.792Z,14.30
2022-12-03T03:42:15.191Z,14.30
2022-12-03T03:45:02.545Z,14.30
2022-12-03T03:47:49.716Z,14.30
2022-12-03T03:50:38.577Z,14.30
2022-12-03T03:53:26.286Z,14.30
2022-12-03T03:56:13.990Z,14.30
2022-12-03T03:59:01.224Z,14.30
2022-12-03T04:01:48.368Z,14.30
2022-12-03T04:04:38.894Z,14.20
2022-12-03T04:07:27.981Z,14.30
2022-12-03T04:10:33.325Z,14.30
2022-12-03T04:13:20.403Z,14.30
2022-12-03T04:16:08.602Z,14.20
2022-12-03T04:18:55.908Z,14.20
2022-12-03T04:22:00.499Z,14.20
2022-12-03T04:24:48.859Z,14.20
2022-12-03T04:27:53.676Z,14.20
2022-12-03T04:30:40.943Z,14.20
2022-12-03T04:33:45.519Z,14.30
2022-12-03T04:36:32.600Z,14.20
2022-12-03T04:39:21.035Z,14.20
2022-12-03T04:42:09.709Z,14.20
2022-12-03T04:44:58.451Z,14.20
2022-12-03T04:47:45.555Z,14.20
2022-12-03T04:50:32.831Z,14.20
2022-12-03T04:53:20.030Z,14.20
2022-12-03T04:56:07.925Z,14.20
2022-12-03T04:58:56.597Z,14.20
2022-12-03T05:01:43.908Z,14.20
2022-12-03T05:04:31.460Z,14.20
2022-12-03T05:07:18.913Z,14.20
2022-12-03T05:10:08.117Z,14.20
2022-12-03T05:12:55.440Z,14.20
2022-12-03T05:15:43.770Z,14.20
2022-12-03T05:18:31.331Z,14.20
2022-12-03T05:21:18.587Z,14.20
2022-12-03T05:24:06.876Z,14.20
2022-12-03T05:26:53.929Z,14.20
2022-12-03T05:29:41.079Z,14.20
2022-12-03T05:32:29.624Z,14.20
2022-12-03T05:35:17.061Z,14.10
2022-12-03T05:38:04.125Z,14.10
2022-12-03T05:40:51.183Z,14.10
2022-12-03T05:43:37.202Z,14.10
2022-12-03T05:46:24.380Z,14.10
2022-12-03T05:49:12.694Z,14.10
2022-12-03T05:51:59.831Z,14.10
2022-12-03T05:54:47.022Z,14.10
2022-12-03T05:57:34.212Z,14.10
2022-12-03T06:00:24.684Z,14.10
2022-12-03T06:03:11.906Z,14.10
2022-12-03T06:06:00.651Z,14.10
2022-12-03T06:08:47.675Z,14.10
2022-12-03T06:11:37.066Z,14.10
2022-12-03T06:14:24.116Z,14.10
2022-12-03T06:17:11.647Z,14.10
2022-12-03T06:19:59.452Z,14.10
2022-12-03T06:22:48.604Z,14.10
2022-12-03T06:25:35.630Z,14.10
2022-12-03T06:28:22.734Z,14.10
2022-12-03T06:31:09.987Z,14.10
2022-12-03T06:33:57.064Z,14.10
2022-12-03T06:36:44.279Z,14.10
2022-12-03T06:39:32.819Z,14.00
2022-12-03T06:42:22.543Z,14.10
2022-12-03T06:45:11.015Z,14.10
2022-12-03T06:47:58.339Z,14.10
2022-12-03T06:50:45.635Z,14.10
2022-12-03T06:53:33.127Z,14.10
2022-12-03T06:56:22.637Z,14.10
2022-12-03T06:59:10.187Z,14.10
2022-12-03T07:01:57.621Z,14.10
2022-12-03T07:04:26.196Z,14.00
2022-12-03T07:06:54.927Z,14.10
2022-12-03T07:09:23.591Z,14.00
2022-12-03T07:11:53.653Z,14.00
2022-12-03T07:14:22.285Z,14.00
2022-12-03T07:16:51.011Z,14.00
2022-12-03T07:19:19.620Z,14.00
2022-12-03T07:21:48.255Z,14.10
2022-12-03T07:24:16.918Z,14.10
2022-12-03T07:26:45.588Z,14.00
2022-12-03T07:29:15.623Z,14.10
2022-12-03T07:31:44.279Z,14.00
2022-12-03T07:34:12.983Z,14.00
2022-12-03T07:36:41.596Z,14.00
2022-12-03T07:39:10.204Z,14.00
2022-12-03T07:41:38.820Z,14.10
2022-12-03T07:44:13.768Z,14.00
2022-12-03T07:46:44.711Z,14.00
2022-12-03T07:49:13.419Z,14.00
2022-12-03T07:51:42.944Z,14.10
2022-12-03T07:54:11.580Z,14.00
2022-12-03T07:56:40.234Z,14.10
2022-12-03T07:59:08.856Z,14.10
2022-12-03T08:01:37.595Z,14.10
2022-12-03T08:04:09.268Z,14.10
2022-12-03T08:06:39.053Z,14.10
2022-12-03T08:09:09.925Z,14.10
2022-12-03T08:11:40.859Z,14.10
2022-12-03T08:14:13.460Z,14.10
2022-12-03T08:16:45.586Z,14.10
2022-12-03T08:19:18.260Z,14.10
2022-12-03T08:21:47.181Z,14.10
2022-12-03T08:24:18.900Z,14.10
2022-12-03T08:26:49.677Z,14.20
2022-12-03T08:29:20.743Z,14.20
2022-12-03T08:31:52.177Z,14.20
2022-12-03T08:34:24.692Z,14.20
2022-12-03T08:36:59.392Z,14.20
2022-12-03T08:39:33.607Z,14.20
2022-12-03T08:42:30.909Z,14.20
2022-12-03T08:45:28.130Z,14.20
2022-12-03T08:47:57.546Z,14.20
2022-12-03T08:50:32.278Z,14.20
2022-12-03T08:53:22.367Z,14.20
2022-12-03T08:55:54.727Z,14.20
2022-12-03T08:58:26.108Z,14.30
2022-12-03T09:01:00.258Z,14.20
2022-12-03T09:03:32.504Z,14.30
2022-12-03T09:06:02.575Z,14.30
2022-12-03T09:08:32.429Z,14.30
2022-12-03T09:11:01.286Z,14.30
2022-12-03T09:13:30.453Z,14.30
2022-12-03T09:15:59.123Z,14.30
2022-12-03T09:18:27.701Z,14.30
2022-12-03T09:20:56.509Z,14.30
2022-12-03T09:23:26.523Z,14.30
2022-12-03T09:25:55.171Z,14.30
2022-12-03T09:28:23.785Z,14.30
2022-12-03T09:30:52.408Z,14.30
2022-12-03T09:33:21.068Z,14.40
2022-12-03T09:35:49.746Z,14.30
2022-12-03T09:38:18.344Z,14.40
2022-12-03T09:40:48.359Z,14.40
2022-12-03T09:43:17.549Z,14.40
2022-12-03T09:45:46.906Z,14.40
2022-12-03T09:48:16.907Z,14.40
2022-12-03T09:50:45.982Z,14.40
2022-12-03T09:53:18.678Z,14.40
2022-12-03T09:55:51.412Z,14.40
2022-12-03T09:58:21.155Z,14.40
2022-12-03T10:00:52.305Z,14.40
2022-12-03T10:03:29.766Z,14.40
2022-12-03T10:05:59.196Z,14.40
2022-12-03T10:08:32.628Z,14.40
2022-12-03T10:11:02.804Z,14.40
2022-12-03T10:13:34.637Z,14.40
2022-12-03T10:16:03.321Z,14.40
2022-12-03T10:18:41.231Z,14.40
2022-12-03T10:21:19.531Z,14.40
2022-12-03T10:23:55.174Z,14.50
2022-12-03T10:26:39.552Z,14.50
2022-12-03T10:29:14.266Z,14.50
2022-12-03T10:31:42.916Z,14.50
2022-12-03T10:34:12.711Z,14.50
2022-12-03T10:36:41.344Z,14.50
2022-12-03T10:39:15.800Z,14.50
2022-12-03T10:41:46.429Z,14.50
2022-12-03T10:44:20.328Z,14.50
2022-12-03T10:47:07.957Z,14.50
2022-12-03T10:49:37.322Z,14.50
2022-12-03T10:52:06.799Z,14.50
2022-12-03T10:54:36.964Z,14.50
2022-12-03T10:57:07.063Z,14.50
2022-12-03T10:59:36.080Z,14.50
2022-12-03T11:02:08.819Z,14.50
2022-12-03T11:04:38.289Z,14.50
2022-12-03T11:07:16.704Z,14.50
2022-12-03T11:09:47.567Z,14.50
2022-12-03T11:12:22.498Z,14.50
2022-12-03T11:15:08.666Z,14.50
2022-12-03T11:17:50.252Z,14.50
2022-12-03T11:21:02.384Z,14.50
2022-12-03T11:24:18.645Z,14.50
2022-12-03T11:27:18.554Z,14.50
2022-12-03T11:30:02.770Z,14.50
2022-12-03T11:33:09.819Z,14.50
2022-12-03T11:36:31.681Z,14.50
2022-12-03T11:39:05.319Z,14.50
2022-12-03T11:41:36.332Z,14.50
2022-12-03T11:44:31.487Z,14.50
2022-12-03T11:47:13.035Z,14.50
2022-12-03T11:49:48.811Z,14.50
2022-12-03T11:52:29.810Z,14.40
2022-12-03T11:55:04.514Z,14.40
2022-12-03T11:57:43.278Z,14.40
2022-12-03T12:00:22.350Z,14.40
2022-12-03T12:02:55.197Z,14.40
2022-12-03T12:05:29.750Z,14.40
2022-12-03T12:07:58.812Z,14.40
2022-12-03T12:10:48.829Z,14.40
2022-12-03T12:13:58.161Z,14.40
2022-12-03T12:16:51.231Z,14.40
2022-12-03T12:19:37.913Z,14.40
2022-12-03T12:22:29.764Z,14.30
2022-12-03T12:24:59.984Z,14.40
2022-12-03T12:27:36.347Z,14.30
2022-12-03T12:30:08.548Z,14.30
2022-12-03T12:32:47.372Z,14.30
2022-12-03T12:35:21.267Z,14.30
2022-12-03T12:37:59.167Z,14.30
2022-12-03T12:40:31.983Z,14.30
2022-12-03T12:43:09.983Z,14.30
2022-12-03T12:45:44.250Z,14.30
2022-12-03T12:48:22.311Z,14.30
2022-12-03T12:50:59.350Z,14.30
2022-12-03T12:53:30.722Z,14.30
2022-12-03T12:56:02.009Z,14.30
2022-12-03T12:58:33.679Z,14.30
2022-12-03T13:01:09.012Z,14.30
2022-12-03T13:03:40.804Z,14.30
2022-12-03T13:06:14.608Z,14.30
2022-12-03T13:08:47.278Z,14.30
2022-12-03T13:11:35.499Z,14.20
2022-12-03T13:14:12.414Z,14.20
2022-12-03T13:16:41.068Z,14.20
2022-12-03T13:19:23.335Z,14.30
2022-12-03T13:21:55.396Z,14.30
2022-12-03T13:24:43.881Z,14.30
2022-12-03T13:27:27.064Z,14.30
2022-12-03T13:30:01.209Z,14.30
2022-12-03T13:32:33.162Z,14.30
2022-12-03T13:35:07.151Z,14.30
2022-12-03T13:37:38.184Z,14.30
2022-12-03T13:40:19.615Z,14.30
2022-12-03T13:42:48.630Z,14.40
2022-12-03T13:45:32.657Z,14.30
2022-12-03T13:48:03.865Z,14.30
2022-12-03T13:50:38.027Z,14.30
2022-12-03T13:53:22.955Z,14.30
2022-12-03T13:55:54.939Z,14.30
2022-12-03T13:58:24.100Z,14.30
2022-12-03T14:00:52.733Z,14.40
2022-12-03T14:03:21.332Z,14.40
2022-12-03T14:05:50.004Z,14.40
2022-12-03T14:08:20.055Z,14.40
2022-12-03T14:10:48.762Z,14.30
2022-12-03T14:13:17.349Z,14.40
2022-12-03T14:15:46.008Z,14.40
2022-12-03T14:18:14.560Z,14.40
2022-12-03T14:20:43.195Z,14.40
2022-12-03T14:23:11.965Z,14.40
2022-12-03T14:25:43.932Z,14.40
2022-12-03T14:28:12.839Z,14.40
2022-12-03T14:30:41.460Z,14.40
2022-12-03T14:33:10.048Z,14.40
2022-12-03T14:35:38.647Z,14.40
2022-12-03T14:38:07.261Z,14.40
2022-12-03T14:40:35.920Z,14.40
2022-12-03T14:43:05.945Z,14.40
2022-12-03T14:45:34.632Z,14.40
2022-12-03T14:48:03.368Z,14.40
2022-12-03T14:50:32.155Z,14.40
2022-12-03T14:53:00.780Z,14.40
2022-12-03T14:55:29.448Z,14.40
2022-12-03T14:57:58.093Z,14.40
2022-12-03T15:00:28.186Z,14.40
2022-12-03T15:02:56.839Z,14.40
2022-12-03T15:05:28.795Z,14.40
2022-12-03T15:07:57.806Z,14.40
2022-12-03T15:10:26.455Z,14.40
2022-12-03T15:12:55.151Z,14.40
2022-12-03T15:15:23.803Z,14.40
2022-12-03T15:17:53.901Z,14.40
2022-12-03T15:20:22.576Z,14.40
2022-12-03T15:22:51.225Z,14.40
2022-12-03T15:25:24.444Z,14.40
2022-12-03T15:27:53.078Z,14.40
2022-12-03T15:30:21.793Z,14.40
2022-12-03T15:32:50.654Z,14.40
2022-12-03T15:35:20.667Z,14.40
2022-12-03T15:37:49.376Z,14.40
2022-12-03T15:40:18.467Z,14.40
2022-12-03T15:42:47.151Z,14.40
2022-12-03T15:45:15.856Z,14.40
2022-12-03T15:47:44.566Z,14.40
2022-12-03T15:50:14.615Z,14.40
2022-12-03T15:52:59.697Z,14.40
2022-12-03T15:55:28.323Z,14.40
2022-12-03T15:57:56.935Z,14.40
2022-12-03T16:00:25.661Z,14.40
2022-12-03T16:02:54.437Z,14.40
2022-12-03T16:05:23.201Z,14.40
2022-12-03T16:07:51.868Z,14.40
2022-12-03T16:10:22.431Z,14.40
2022-12-03T16:12:51.062Z,14.40
2022-12-03T16:15:25.105Z,14.40
2022-12-03T16:17:55.480Z,14.40
2022-12-03T16:20:24.197Z,14.40
2022-12-03T16:22:53.155Z,14.40
2022-12-03T16:25:23.240Z,14.40
2022-12-03T16:27:51.908Z,14.40
2022-12-03T16:30:20.763Z,14.40
2022-12-03T16:32:49.423Z,14.40
2022-12-03T16:35:18.198Z,14.40
2022-12-03T16:37:46.960Z,14.40
2022-12-03T16:40:15.721Z,14.40
2022-12-03T16:42:45.691Z,14.40
2022-12-03T16:45:33.832Z,14.40
2022-12-03T16:48:03.402Z,14.40
2022-12-03T16:50:32.052Z,14.40
2022-12-03T16:53:00.643Z,14.40
2022-12-03T16:55:29.227Z,14.40
2022-12-03T16:57:59.243Z,14.40
2022-12-03T17:00:29.060Z,14.30
2022-12-03T17:02:57.780Z,14.40
2022-12-03T17:05:26.508Z,14.30
2022-12-03T17:07:55.254Z,14.30
2022-12-03T17:10:23.950Z,14.30
2022-12-03T17:13:09.773Z,14.40
2022-12-03T17:15:41.038Z,14.30
2022-12-03T17:18:10.315Z,14.40
2022-12-03T17:20:39.239Z,14.40
2022-12-03T17:23:08.150Z,14.40
2022-12-03T17:25:36.965Z,14.40
2022-12-03T17:28:05.720Z,14.40
2022-12-03T17:30:34.355Z,14.40
2022-12-03T17:33:04.687Z,14.40
2022-12-03T17:35:33.372Z,14.30
2022-12-03T17:38:02.558Z,14.30
2022-12-03T17:40:31.370Z,14.30
2022-12-03T17:42:59.977Z,14.30
2022-12-03T17:45:28.901Z,14.30
2022-12-03T17:47:57.604Z,14.30
2022-12-03T17:50:28.164Z,14.30
2022-12-03T17:52:56.796Z,14.30
2022-12-03T17:55:33.861Z,14.30
2022-12-03T17:58:06.179Z,14.30
2022-12-03T18:00:35.656Z,14.30
2022-12-03T18:03:04.565Z,14.20
2022-12-03T18:05:34.595Z,14.20
2022-12-03T18:08:03.319Z,14.20
2022-12-03T18:10:32.087Z,14.20
2022-12-03T18:13:02.203Z,14.20
2022-12-03T18:15:31.346Z,14.20
2022-12-03T18:17:59.950Z,14.20
2022-12-03T18:20:28.733Z,14.20
2022-12-03T18:22:59.537Z,14.20
2022-12-03T18:25:29.163Z,14.20
2022-12-03T18:27:58.311Z,14.20
2022-12-03T18:30:27.031Z,14.20
2022-12-03T18:32:55.682Z,14.20
2022-12-03T18:35:24.380Z,14.10
2022-12-03T18:37:53.147Z,14.10
2022-12-03T18:40:27.140Z,14.10
2022-12-03T18:42:57.930Z,14.10
2022-12-03T18:45:26.561Z,14.10
2022-12-03T18:47:55.823Z,14.10
2022-12-03T18:50:24.528Z,14.00
2022-12-03T18:52:53.181Z,14.00
2022-12-03T18:55:23.646Z,14.00
2022-12-03T18:57:52.293Z,13.90
2022-12-03T19:00:21.535Z,13.90
2022-12-03T19:03:05.832Z,13.90
2022-12-03T19:05:36.445Z,13.90
2022-12-03T19:08:12.647Z,13.90
2022-12-03T19:10:43.655Z,13.90
2022-12-03T19:13:12.644Z,14.00
2022-12-03T19:15:42.062Z,13.90
2022-12-03T19:18:10.690Z,13.90
2022-12-03T19:20:41.935Z,13.90
2022-12-03T19:23:11.392Z,13.90
2022-12-03T19:25:40.050Z,13.90
2022-12-03T19:28:10.566Z,13.90
2022-12-03T19:30:39.192Z,13.90
2022-12-03T19:33:07.827Z,13.90
2022-12-03T19:35:40.661Z,13.90
2022-12-03T19:38:09.432Z,13.90
2022-12-03T19:40:38.062Z,13.90
2022-12-03T19:43:06.705Z,13.90
2022-12-03T19:45:38.967Z,13.90
2022-12-03T19:48:07.963Z,13.90
2022-12-03T19:50:36.571Z,13.90
2022-12-03T19:53:05.570Z,13.90
2022-12-03T19:55:36.913Z,13.90
2022-12-03T19:58:05.563Z,13.90
2022-12-03T20:00:35.816Z,13.90
2022-12-03T20:03:06.206Z,13.90
2022-12-03T20:05:38.278Z,13.90
2022-12-03T20:08:08.343Z,13.90
2022-12-03T20:10:37.334Z,13.90
2022-12-03T20:13:06.635Z,13.90
2022-12-03T20:15:37.924Z,13.90
2022-12-03T20:18:08.001Z,13.90
2022-12-03T20:20:36.620Z,13.90
2022-12-03T20:23:05.310Z,13.90
2022-12-03T20:25:37.500Z,13.80
2022-12-03T20:28:06.338Z,13.80
2022-12-03T20:30:34.972Z,13.80
2022-12-03T20:33:03.588Z,13.80
2022-12-03T20:35:34.889Z,13.80
2022-12-03T20:38:03.496Z,13.80
2022-12-03T20:40:32.676Z,13.80
2022-12-03T20:43:01.395Z,13.80
2022-12-03T20:45:30.000Z,13.80
2022-12-03T20:47:58.613Z,13.80
2022-12-03T20:50:27.270Z,13.90
2022-12-03T20:53:22.660Z,13.90
2022-12-03T20:55:45.928Z,13.90
2022-12-03T20:58:14.584Z,13.90
2022-12-03T21:00:43.219Z,13.90
2022-12-03T21:03:30.469Z,13.90
2022-12-03T21:06:19.451Z,13.90
2022-12-03T21:09:09.375Z,13.80
2022-12-03T21:11:56.311Z,13.80
2022-12-03T21:14:43.392Z,13.90
2022-12-03T21:17:30.442Z,13.80
2022-12-03T21:20:20.981Z,13.80
2022-12-03T21:23:08.687Z,13.80
2022-12-03T21:26:04.509Z,13.80
2022-12-03T21:28:54.228Z,13.70
2022-12-03T21:31:41.627Z,13.70
2022-12-03T21:34:34.351Z,13.70
2022-12-03T21:37:23.116Z,13.70
2022-12-03T21:40:11.596Z,13.70
2022-12-03T21:43:00.245Z,13.70
2022-12-03T21:45:47.615Z,13.70
2022-12-03T21:48:35.383Z,13.70
2022-12-03T21:51:22.655Z,13.70
2022-12-03T21:54:09.932Z,13.70
2022-12-03T21:56:57.018Z,13.70
2022-12-03T21:59:46.655Z,13.70
2022-12-03T22:02:34.452Z,13.70
2022-12-03T22:05:21.776Z,13.70
2022-12-03T22:08:09.301Z,13.70
2022-12-03T22:10:56.199Z,13.70
2022-12-03T22:13:43.691Z,13.70
2022-12-03T22:16:32.306Z,13.70
2022-12-03T22:19:19.552Z,13.70
2022-12-03T22:22:06.956Z,13.70
2022-12-03T22:24:54.004Z,13.80
2022-12-03T22:27:41.123Z,13.70
2022-12-03T22:30:28.385Z,13.70
2022-12-03T22:33:17.090Z,13.70
2022-12-03T22:36:07.843Z,13.80
2022-12-03T22:38:55.015Z,13.80
2022-12-03T22:41:42.353Z,13.80
2022-12-03T22:44:29.511Z,13.70
2022-12-03T22:47:16.574Z,13.70
2022-12-03T22:50:05.619Z,13.80
2022-12-03T22:52:52.984Z,13.70
2022-12-03T22:55:40.270Z,13.80
2022-12-03T22:58:28.446Z,13.70
2022-12-03T23:01:23.358Z,13.80
2022-12-03T23:04:13.189Z,13.80
2022-12-03T23:07:01.541Z,13.70
2022-12-03T23:09:49.191Z,13.70
2022-12-03T23:12:36.336Z,13.70
2022-12-03T23:15:23.403Z,13.70
2022-12-03T23:18:10.517Z,13.60
2022-12-03T23:20:58.500Z,13.60
2022-12-03T23:23:47.072Z,13.50
2022-12-03T23:26:37.295Z,13.50
2022-12-03T23:29:24.628Z,13.50
2022-12-03T23:32:11.783Z,13.50
2022-12-03T23:34:58.811Z,13.50
2022-12-03T23:37:45.946Z,13.50
2022-12-03T23:40:35.480Z,13.50
2022-12-03T23:43:22.423Z,13.50
2022-12-03T23:46:11.715Z,13.50
2022-12-03T23:49:00.434Z,13.50
2022-12-03T23:51:47.596Z,13.50
2022-12-03T23:54:34.731Z,13.50
2022-12-03T23:57:23.477Z,13.50
